createdAt,value
2022-09-11T00:01:29.315Z,54.28
2022-09-11T00:03:57.327Z,54.38
2022-09-11T00:06:30.131Z,54.40
2022-09-11T00:09:01.909Z,54.44
2022-09-11T00:11:33.153Z,54.63
2022-09-11T00:14:01.949Z,54.35
2022-09-11T00:16:32.940Z,54.46
2022-09-11T00:19:03.136Z,54.54
2022-09-11T00:21:31.405Z,54.42
2022-09-11T00:24:01.123Z,54.36
2022-09-11T00:26:29.637Z,54.58
2022-09-11T00:28:58.094Z,54.76
2022-09-11T00:31:28.055Z,54.66
2022-09-11T00:33:56.238Z,54.63
2022-09-11T00:36:26.018Z,54.58
2022-09-11T00:38:54.391Z,54.73
2022-09-11T00:41:26.625Z,54.85
2022-09-11T00:43:59.349Z,54.64
2022-09-11T00:46:34.438Z,54.61
2022-09-11T00:49:07.892Z,55.17
2022-09-11T00:51:37.954Z,54.74
2022-09-11T00:54:06.365Z,54.64
2022-09-11T00:56:39.150Z,54.71
2022-09-11T00:59:08.047Z,54.86
2022-09-11T01:01:37.475Z,54.71
2022-09-11T01:04:07.081Z,54.83
2022-09-11T01:06:35.169Z,54.66
2022-09-11T01:09:03.777Z,54.73
2022-09-11T01:11:48.703Z,55.01
2022-09-11T01:14:34.322Z,54.59
2022-09-11T01:17:16.251Z,54.77
2022-09-11T01:20:05.632Z,55.00
2022-09-11T01:22:53.389Z,54.86
2022-09-11T01:25:28.670Z,55.03
2022-09-11T01:28:01.098Z,54.72
2022-09-11T01:30:34.243Z,54.98
2022-09-11T01:33:11.863Z,54.84
2022-09-11T01:35:50.760Z,55.00
2022-09-11T01:38:24.923Z,54.90
2022-09-11T01:40:55.817Z,54.79
2022-09-11T01:43:29.550Z,54.86
2022-09-11T01:46:01.584Z,54.91
2022-09-11T01:48:33.180Z,54.98
2022-09-11T01:51:04.603Z,54.85
2022-09-11T01:53:38.182Z,55.21
2022-09-11T01:56:10.990Z,55.12
2022-09-11T01:58:43.718Z,55.06
2022-09-11T02:01:16.114Z,55.40
2022-09-11T02:03:49.421Z,55.25
2022-09-11T02:06:21.590Z,55.18
2022-09-11T02:08:54.568Z,55.25
2022-09-11T02:11:22.853Z,55.56
2022-09-11T02:13:59.935Z,55.19
2022-09-11T02:16:41.114Z,55.18
2022-09-11T02:19:12.257Z,55.45
2022-09-11T02:21:40.825Z,55.36
2022-09-11T02:24:09.553Z,55.34
2022-09-11T02:26:43.427Z,55.51
2022-09-11T02:29:13.601Z,55.26
2022-09-11T02:31:43.846Z,55.40
2022-09-11T02:34:14.446Z,55.61
2022-09-11T02:37:03.271Z,55.55
2022-09-11T02:39:49.936Z,55.56
2022-09-11T02:42:31.138Z,55.69
2022-09-11T02:45:11.017Z,55.33
2022-09-11T02:47:47.466Z,55.06
2022-09-11T02:50:28.438Z,55.32
2022-09-11T02:53:02.645Z,55.50
2022-09-11T02:55:44.122Z,55.56
2022-09-11T02:58:18.825Z,55.25
2022-09-11T03:00:48.413Z,55.39
2022-09-11T03:03:16.645Z,55.29
2022-09-11T03:05:44.751Z,55.18
2022-09-11T03:08:14.733Z,55.26
2022-09-11T03:10:43.110Z,55.39
2022-09-11T03:13:11.243Z,55.32
2022-09-11T03:15:39.280Z,55.64
2022-09-11T03:18:08.740Z,55.14
2022-09-11T03:20:36.973Z,55.56
2022-09-11T03:23:11.351Z,55.56
2022-09-11T03:25:39.749Z,55.54
2022-09-11T03:28:08.078Z,55.40
2022-09-11T03:30:36.484Z,55.37
2022-09-11T03:33:05.171Z,55.32
2022-09-11T03:35:35.122Z,55.38
2022-09-11T03:38:03.467Z,55.37
2022-09-11T03:40:31.932Z,55.54
2022-09-11T03:42:59.932Z,55.28
2022-09-11T03:45:28.178Z,55.35
2022-09-11T03:47:57.014Z,55.41
2022-09-11T03:50:25.106Z,54.96
2022-09-11T03:52:54.782Z,55.20
2022-09-11T03:55:23.611Z,55.40
2022-09-11T03:57:51.645Z,55.24
2022-09-11T04:00:19.686Z,55.44
2022-09-11T04:02:47.768Z,55.29
2022-09-11T04:05:15.832Z,55.28
2022-09-11T04:07:43.833Z,55.18
2022-09-11T04:10:13.657Z,55.19
2022-09-11T04:12:42.062Z,55.48
2022-09-11T04:15:10.938Z,55.03
2022-09-11T04:17:39.371Z,55.04
2022-09-11T04:20:08.195Z,55.08
2022-09-11T04:22:36.119Z,55.12
2022-09-11T04:25:04.272Z,55.14
2022-09-11T04:27:33.752Z,55.08
2022-09-11T04:30:01.710Z,55.06
2022-09-11T04:32:30.316Z,54.93
2022-09-11T04:34:58.294Z,54.96
2022-09-11T04:37:26.413Z,55.16
2022-09-11T04:39:54.627Z,55.13
2022-09-11T04:42:22.699Z,55.03
2022-09-11T04:44:52.346Z,55.22
2022-09-11T04:47:21.194Z,55.07
2022-09-11T04:49:49.926Z,54.79
2022-09-11T04:52:18.265Z,54.92
2022-09-11T04:54:46.598Z,55.22
2022-09-11T04:57:14.575Z,55.18
2022-09-11T04:59:42.723Z,55.07
2022-09-11T05:02:12.640Z,54.80
2022-09-11T05:04:41.748Z,54.82
2022-09-11T05:07:13.505Z,55.05
2022-09-11T05:09:41.699Z,54.70
2022-09-11T05:12:10.705Z,54.92
2022-09-11T05:14:38.722Z,55.16
2022-09-11T05:17:06.835Z,55.15
2022-09-11T05:19:36.201Z,55.04
2022-09-11T05:22:04.393Z,54.74
2022-09-11T05:24:32.456Z,54.75
2022-09-11T05:27:01.208Z,54.99
2022-09-11T05:29:32.536Z,55.02
2022-09-11T05:32:01.269Z,55.00
2022-09-11T05:34:29.955Z,54.94
2022-09-11T05:36:59.858Z,55.07
2022-09-11T05:39:27.947Z,55.12
2022-09-11T05:41:56.609Z,55.05
2022-09-11T05:44:24.653Z,55.04
2022-09-11T05:46:52.662Z,55.23
2022-09-11T05:49:22.080Z,55.22
2022-09-11T05:51:50.139Z,54.96
2022-09-11T05:54:19.729Z,55.02
2022-09-11T05:56:47.679Z,55.22
2022-09-11T05:59:16.443Z,55.07
2022-09-11T06:01:44.416Z,55.22
2022-09-11T06:04:13.578Z,55.12
2022-09-11T06:06:41.620Z,55.23
2022-09-11T06:09:09.816Z,55.34
2022-09-11T06:11:39.241Z,55.12
2022-09-11T06:14:07.203Z,55.30
2022-09-11T06:16:35.359Z,55.23
2022-09-11T06:19:06.045Z,54.96
2022-09-11T06:21:34.192Z,55.32
2022-09-11T06:24:02.336Z,55.04
2022-09-11T06:26:30.822Z,55.14
2022-09-11T06:29:00.539Z,55.21
2022-09-11T06:31:30.071Z,55.08
2022-09-11T06:33:58.031Z,55.23
2022-09-11T06:36:27.893Z,55.06
2022-09-11T06:38:57.544Z,55.08
2022-09-11T06:41:26.573Z,55.17
2022-09-11T06:43:55.009Z,55.20
2022-09-11T06:46:26.055Z,55.21
2022-09-11T06:48:56.403Z,55.17
2022-09-11T06:51:24.664Z,55.29
2022-09-11T06:53:58.154Z,55.46
2022-09-11T06:56:26.307Z,55.19
2022-09-11T06:58:54.584Z,55.46
2022-09-11T07:01:24.673Z,55.44
2022-09-11T07:03:55.606Z,55.41
2022-09-11T07:06:25.713Z,55.34
2022-09-11T07:08:56.806Z,55.07
2022-09-11T07:11:24.980Z,55.80
2022-09-11T07:13:53.124Z,55.47
2022-09-11T07:16:21.725Z,55.71
2022-09-11T07:18:51.242Z,55.48
2022-09-11T07:21:22.215Z,55.68
2022-09-11T07:23:52.121Z,55.44
2022-09-11T07:26:20.290Z,55.37
2022-09-11T07:28:48.944Z,55.28
2022-09-11T07:31:21.051Z,55.36
2022-09-11T07:33:52.107Z,55.26
2022-09-11T07:36:21.577Z,55.44
2022-09-11T07:38:51.040Z,55.37
2022-09-11T07:41:22.093Z,55.13
2022-09-11T07:43:54.799Z,55.20
2022-09-11T07:46:24.514Z,54.83
2022-09-11T07:48:54.088Z,54.93
2022-09-11T07:51:22.180Z,55.13
2022-09-11T07:53:51.640Z,54.79
2022-09-11T07:56:21.453Z,54.71
2022-09-11T07:58:50.040Z,54.67
2022-09-11T08:01:21.538Z,54.39
2022-09-11T08:03:50.527Z,54.54
2022-09-11T08:06:22.528Z,54.09
2022-09-11T08:08:54.373Z,54.39
2022-09-11T08:11:23.062Z,54.25
2022-09-11T08:13:52.387Z,54.38
2022-09-11T08:16:21.184Z,53.92
2022-09-11T08:18:49.721Z,54.22
2022-09-11T08:21:19.765Z,53.92
2022-09-11T08:23:49.118Z,54.17
2022-09-11T08:26:19.444Z,53.73
2022-09-11T08:28:48.156Z,53.71
2022-09-11T08:31:16.473Z,53.78
2022-09-11T08:33:45.815Z,53.40
2022-09-11T08:36:15.431Z,53.20
2022-09-11T08:38:48.044Z,53.37
2022-09-11T08:41:31.942Z,53.31
2022-09-11T08:44:04.375Z,53.35
2022-09-11T08:46:36.387Z,53.16
2022-09-11T08:49:12.131Z,53.21
2022-09-11T08:51:41.031Z,53.22
2022-09-11T08:54:23.248Z,53.17
2022-09-11T08:56:53.043Z,53.01
2022-09-11T08:59:30.934Z,52.65
2022-09-11T09:02:13.104Z,52.33
2022-09-11T09:04:59.351Z,52.67
2022-09-11T09:07:37.693Z,52.30
2022-09-11T09:10:17.584Z,52.27
2022-09-11T09:12:54.454Z,52.00
2022-09-11T09:15:32.714Z,52.13
2022-09-11T09:18:04.037Z,51.94
2022-09-11T09:20:36.057Z,51.59
2022-09-11T09:23:08.321Z,51.38
2022-09-11T09:25:41.662Z,51.21
2022-09-11T09:28:19.555Z,51.59
2022-09-11T09:30:52.572Z,50.79
2022-09-11T09:33:30.904Z,50.54
2022-09-11T09:36:04.154Z,50.55
2022-09-11T09:38:32.740Z,50.54
2022-09-11T09:41:28.599Z,50.26
2022-09-11T09:44:05.064Z,50.12
2022-09-11T09:46:44.687Z,49.84
2022-09-11T09:49:22.364Z,49.69
2022-09-11T09:51:51.288Z,49.66
2022-09-11T09:54:23.403Z,49.57
2022-09-11T09:56:59.966Z,49.62
2022-09-11T09:59:33.655Z,49.37
2022-09-11T10:02:02.136Z,49.11
2022-09-11T10:04:30.676Z,48.97
2022-09-11T10:07:10.795Z,48.79
2022-09-11T10:09:46.810Z,48.45
2022-09-11T10:12:19.864Z,48.39
2022-09-11T10:14:54.571Z,48.13
2022-09-11T10:17:25.475Z,47.74
2022-09-11T10:19:57.182Z,47.70
2022-09-11T10:22:34.174Z,47.48
2022-09-11T10:25:11.882Z,47.41
2022-09-11T10:28:04.722Z,46.88
2022-09-11T10:30:37.886Z,46.89
2022-09-11T10:33:16.214Z,46.28
2022-09-11T10:35:53.233Z,45.89
2022-09-11T10:38:22.661Z,45.78
2022-09-11T10:41:09.508Z,45.27
2022-09-11T10:43:45.197Z,45.22
2022-09-11T10:46:26.176Z,45.21
2022-09-11T10:48:56.091Z,45.16
2022-09-11T10:51:25.247Z,44.83
2022-09-11T10:54:08.669Z,44.89
2022-09-11T10:56:46.089Z,44.53
2022-09-11T10:59:23.151Z,44.29
2022-09-11T11:01:51.529Z,44.09
2022-09-11T11:04:21.910Z,44.25
2022-09-11T11:06:58.184Z,43.31
2022-09-11T11:09:38.536Z,43.36
2022-09-11T11:12:23.481Z,43.05
2022-09-11T11:15:21.902Z,42.94
2022-09-11T11:17:59.172Z,42.83
2022-09-11T11:20:35.335Z,42.52
2022-09-11T11:23:20.029Z,42.32
2022-09-11T11:25:57.969Z,41.80
2022-09-11T11:28:44.329Z,41.92
2022-09-11T11:31:28.937Z,42.10
2022-09-11T11:34:31.884Z,41.64
2022-09-11T11:37:07.540Z,41.23
2022-09-11T11:39:43.705Z,41.46
2022-09-11T11:42:18.164Z,41.43
2022-09-11T11:44:51.530Z,41.33
2022-09-11T11:47:26.173Z,41.01
2022-09-11T11:50:02.735Z,40.87
2022-09-11T11:52:50.848Z,40.74
2022-09-11T11:55:22.426Z,40.25
2022-09-11T11:57:59.396Z,39.89
2022-09-11T12:00:30.273Z,40.24
2022-09-11T12:03:11.251Z,40.01
2022-09-11T12:05:40.504Z,39.84
2022-09-11T12:08:14.466Z,39.69
2022-09-11T12:10:47.846Z,39.38
2022-09-11T12:13:17.916Z,39.55
2022-09-11T12:16:05.705Z,39.27
2022-09-11T12:18:38.028Z,39.53
2022-09-11T12:21:41.775Z,39.69
2022-09-11T12:24:18.012Z,39.78
2022-09-11T12:26:47.579Z,39.75
2022-09-11T12:29:52.046Z,39.94
2022-09-11T12:32:30.049Z,40.08
2022-09-11T12:35:15.411Z,40.37
2022-09-11T12:37:46.167Z,40.42
2022-09-11T12:40:20.599Z,40.29
2022-09-11T12:42:58.083Z,40.22
2022-09-11T12:45:38.756Z,40.42
2022-09-11T12:48:10.975Z,40.34
2022-09-11T12:50:41.754Z,40.57
2022-09-11T12:53:19.441Z,40.79
2022-09-11T12:55:56.571Z,40.93
2022-09-11T12:58:31.235Z,40.77
2022-09-11T13:01:08.503Z,40.29
2022-09-11T13:03:48.861Z,40.57
2022-09-11T13:06:18.724Z,40.44
2022-09-11T13:08:51.811Z,40.32
2022-09-11T13:11:43.621Z,40.28
2022-09-11T13:14:48.796Z,39.99
2022-09-11T13:17:33.950Z,39.94
2022-09-11T13:20:22.701Z,39.69
2022-09-11T13:22:58.149Z,39.53
2022-09-11T13:25:29.403Z,39.34
2022-09-11T13:28:02.408Z,39.61
2022-09-11T13:30:30.890Z,39.48
2022-09-11T13:33:07.712Z,39.61
2022-09-11T13:35:40.560Z,39.60
2022-09-11T13:38:14.807Z,39.90
2022-09-11T13:40:47.049Z,39.93
2022-09-11T13:43:18.373Z,40.30
2022-09-11T13:45:46.763Z,40.39
2022-09-11T13:48:21.739Z,40.43
2022-09-11T13:50:51.145Z,40.40
2022-09-11T13:53:22.421Z,40.76
2022-09-11T13:55:50.794Z,40.86
2022-09-11T13:58:29.645Z,40.98
2022-09-11T14:00:58.780Z,40.89
2022-09-11T14:03:29.599Z,41.37
2022-09-11T14:05:59.803Z,41.54
2022-09-11T14:08:34.449Z,41.47
2022-09-11T14:11:11.143Z,41.84
2022-09-11T14:13:44.638Z,41.60
2022-09-11T14:16:23.957Z,41.75
2022-09-11T14:18:55.879Z,41.98
2022-09-11T14:21:27.091Z,41.91
2022-09-11T14:23:58.275Z,42.13
2022-09-11T14:26:40.810Z,41.93
2022-09-11T14:29:24.277Z,41.82
2022-09-11T14:31:53.281Z,42.16
2022-09-11T14:34:23.151Z,42.38
2022-09-11T14:36:55.360Z,42.06
2022-09-11T14:39:29.835Z,42.14
2022-09-11T14:41:59.162Z,42.30
2022-09-11T14:44:28.132Z,42.11
2022-09-11T14:46:57.744Z,42.25
2022-09-11T14:49:26.153Z,42.14
2022-09-11T14:51:58.236Z,42.13
2022-09-11T14:54:31.204Z,41.93
2022-09-11T14:56:59.769Z,42.09
2022-09-11T14:59:29.821Z,42.41
2022-09-11T15:01:58.634Z,42.06
2022-09-11T15:04:27.474Z,42.34
2022-09-11T15:06:56.594Z,42.44
2022-09-11T15:09:25.595Z,42.79
2022-09-11T15:11:55.176Z,42.80
2022-09-11T15:14:45.152Z,42.68
2022-09-11T15:17:13.512Z,42.25
2022-09-11T15:19:41.732Z,42.09
2022-09-11T15:22:11.679Z,42.04
2022-09-11T15:24:39.703Z,41.61
2022-09-11T15:27:10.470Z,41.85
2022-09-11T15:29:39.857Z,41.88
2022-09-11T15:32:09.470Z,42.10
2022-09-11T15:34:38.817Z,42.12
2022-09-11T15:37:07.423Z,42.14
2022-09-11T15:39:35.852Z,42.42
2022-09-11T15:42:04.404Z,42.50
2022-09-11T15:44:37.809Z,42.47
2022-09-11T15:47:07.418Z,42.86
2022-09-11T15:49:41.290Z,42.58
2022-09-11T15:52:11.870Z,42.74
2022-09-11T15:54:40.322Z,42.86
2022-09-11T15:57:08.888Z,42.63
2022-09-11T15:59:40.234Z,42.88
2022-09-11T16:02:09.281Z,42.72
2022-09-11T16:04:37.815Z,42.90
2022-09-11T16:07:06.091Z,42.50
2022-09-11T16:09:38.539Z,42.87
2022-09-11T16:12:07.632Z,42.86
2022-09-11T16:14:38.518Z,42.83
2022-09-11T16:17:08.132Z,42.69
2022-09-11T16:19:38.647Z,42.87
2022-09-11T16:22:08.902Z,42.67
2022-09-11T16:24:38.477Z,42.80
2022-09-11T16:27:08.506Z,42.46
2022-09-11T16:30:11.430Z,42.27
2022-09-11T16:32:29.370Z,42.56
2022-09-11T16:34:59.835Z,42.33
2022-09-11T16:37:32.938Z,42.24
2022-09-11T16:40:02.095Z,42.21
2022-09-11T16:42:30.576Z,41.74
2022-09-11T16:45:00.264Z,42.03
2022-09-11T16:47:30.521Z,42.07
2022-09-11T16:50:07.872Z,41.97
2022-09-11T16:52:36.849Z,41.93
2022-09-11T16:55:06.480Z,41.96
2022-09-11T16:57:35.214Z,42.11
2022-09-11T17:00:05.957Z,41.99
2022-09-11T17:02:34.635Z,41.62
2022-09-11T17:05:03.746Z,41.63
2022-09-11T17:07:32.472Z,41.57
2022-09-11T17:10:00.885Z,41.61
2022-09-11T17:12:29.174Z,41.77
2022-09-11T17:14:57.527Z,42.27
2022-09-11T17:17:27.093Z,42.39
2022-09-11T17:19:55.262Z,42.43
2022-09-11T17:22:23.252Z,42.76
2022-09-11T17:24:51.461Z,42.72
2022-09-11T17:27:19.642Z,42.76
2022-09-11T17:29:48.431Z,42.75
2022-09-11T17:32:29.332Z,43.29
2022-09-11T17:34:59.760Z,43.16
2022-09-11T17:37:28.632Z,43.37
2022-09-11T17:39:58.175Z,43.67
2022-09-11T17:42:29.063Z,43.51
2022-09-11T17:45:00.161Z,43.63
2022-09-11T17:47:32.193Z,43.79
2022-09-11T17:50:05.019Z,44.07
2022-09-11T17:52:34.874Z,44.11
2022-09-11T17:55:03.146Z,44.14
2022-09-11T17:57:31.438Z,44.30
2022-09-11T18:03:08.644Z,44.77
2022-09-11T18:05:43.180Z,44.94
2022-09-11T18:08:11.317Z,45.26
2022-09-11T18:10:40.052Z,45.13
2022-09-11T18:13:09.415Z,45.15
2022-09-11T18:15:37.491Z,45.17
2022-09-11T18:18:05.705Z,45.69
2022-09-11T18:20:43.471Z,45.72
2022-09-11T18:23:12.831Z,45.92
2022-09-11T18:25:42.020Z,46.33
2022-09-11T18:28:11.051Z,46.25
2022-09-11T18:30:41.520Z,46.63
2022-09-11T18:33:11.309Z,46.48
2022-09-11T18:35:41.003Z,46.43
2022-09-11T18:38:09.176Z,46.56
2022-09-11T18:40:37.384Z,46.78
2022-09-11T18:43:06.429Z,46.93
2022-09-11T18:45:36.409Z,47.28
2022-09-11T18:48:05.251Z,47.21
2022-09-11T18:50:45.114Z,47.32
2022-09-11T18:53:15.014Z,47.54
2022-09-11T18:55:43.405Z,47.87
2022-09-11T18:58:11.907Z,47.77
2022-09-11T19:00:41.295Z,48.02
2022-09-11T19:03:09.443Z,48.07
2022-09-11T19:05:38.005Z,48.28
2022-09-11T19:08:07.593Z,48.38
2022-09-11T19:10:35.721Z,48.19
2022-09-11T19:13:03.883Z,48.49
2022-09-11T19:15:32.352Z,48.70
2022-09-11T19:18:01.582Z,48.48
2022-09-11T19:20:30.072Z,48.93
2022-09-11T19:23:02.818Z,48.90
2022-09-11T19:25:33.704Z,48.72
2022-09-11T19:28:02.352Z,49.29
2022-09-11T19:30:31.706Z,49.47
2022-09-11T19:33:00.446Z,49.36
2022-09-11T19:35:28.716Z,49.15
2022-09-11T19:37:57.001Z,49.60
2022-09-11T19:40:25.141Z,49.52
2022-09-11T19:42:55.101Z,49.60
2022-09-11T19:45:24.117Z,49.57
2022-09-11T19:47:52.752Z,49.89
2022-09-11T19:50:22.699Z,49.82
2022-09-11T19:52:50.776Z,49.60
2022-09-11T19:55:18.906Z,49.91
2022-09-11T19:57:47.005Z,49.77
2022-09-11T20:00:16.797Z,49.81
2022-09-11T20:02:51.632Z,49.97
2022-09-11T20:05:19.673Z,50.12
2022-09-11T20:07:47.862Z,50.20
2022-09-11T20:10:16.464Z,50.27
2022-09-11T20:12:44.518Z,50.27
2022-09-11T20:15:13.871Z,50.41
2022-09-11T20:17:44.746Z,50.20
2022-09-11T20:20:13.343Z,50.26
2022-09-11T20:22:41.445Z,50.40
2022-09-11T20:25:13.714Z,50.46
2022-09-11T20:27:41.851Z,50.36
2022-09-11T20:30:10.703Z,50.56
2022-09-11T20:32:39.272Z,50.84
2022-09-11T20:35:09.625Z,50.79
2022-09-11T20:37:38.239Z,50.58
2022-09-11T20:40:07.446Z,50.81
2022-09-11T20:42:35.716Z,50.68
2022-09-11T20:45:04.162Z,51.02
2022-09-11T20:47:32.578Z,50.95
2022-09-11T20:50:00.858Z,51.26
2022-09-11T20:52:31.084Z,51.29
2022-09-11T20:55:00.649Z,51.13
2022-09-11T20:57:31.117Z,51.16
2022-09-11T21:00:00.642Z,51.27
2022-09-11T21:02:39.817Z,51.60
2022-09-11T21:05:08.336Z,51.55
2022-09-11T21:07:37.847Z,51.08
2022-09-11T21:10:07.984Z,51.65
2022-09-11T21:12:36.270Z,51.67
2022-09-11T21:15:04.462Z,51.47
2022-09-11T21:17:32.505Z,51.56
2022-09-11T21:20:00.667Z,51.79
2022-09-11T21:22:28.637Z,51.77
2022-09-11T21:24:58.066Z,52.08
2022-09-11T21:27:26.004Z,51.88
2022-09-11T21:29:55.547Z,52.06
2022-09-11T21:32:23.653Z,51.96
2022-09-11T21:34:54.676Z,52.04
2022-09-11T21:37:23.165Z,52.29
2022-09-11T21:39:51.662Z,52.28
2022-09-11T21:42:21.412Z,52.27
2022-09-11T21:44:49.752Z,52.50
2022-09-11T21:47:18.789Z,52.52
2022-09-11T21:50:20.585Z,52.44
2022-09-11T21:52:48.990Z,52.51
2022-09-11T21:55:17.145Z,52.37
2022-09-11T21:57:46.601Z,52.71
2022-09-11T22:00:15.704Z,52.41
2022-09-11T22:02:43.750Z,52.44
2022-09-11T22:05:12.976Z,52.48
2022-09-11T22:07:41.243Z,52.62
2022-09-11T22:10:10.301Z,52.49
2022-09-11T22:12:41.398Z,52.57
2022-09-11T22:15:12.188Z,52.74
2022-09-11T22:17:40.570Z,52.80
2022-09-11T22:20:09.241Z,52.44
2022-09-11T22:22:39.023Z,52.82
2022-09-11T22:25:10.637Z,52.80
2022-09-11T22:27:38.737Z,52.97
2022-09-11T22:30:08.688Z,52.81
2022-09-11T22:32:38.262Z,53.12
2022-09-11T22:35:07.047Z,52.97
2022-09-11T22:37:35.112Z,52.90
2022-09-11T22:40:04.652Z,53.13
2022-09-11T22:42:32.743Z,52.97
2022-09-11T22:45:01.134Z,53.03
2022-09-11T22:47:29.146Z,52.77
2022-09-11T22:49:58.688Z,52.90
2022-09-11T22:52:27.045Z,52.92
2022-09-11T22:54:55.040Z,52.98
2022-09-11T22:57:24.534Z,52.94
2022-09-11T22:59:54.106Z,53.22
2022-09-11T23:02:22.400Z,53.26
2022-09-11T23:05:04.222Z,53.32
2022-09-11T23:07:33.923Z,52.93
2022-09-11T23:10:02.189Z,53.32
2022-09-11T23:12:30.282Z,53.12
2022-09-11T23:14:58.540Z,53.13
2022-09-11T23:17:26.904Z,53.50
2022-09-11T23:19:55.125Z,53.10
2022-09-11T23:22:23.284Z,53.29
2022-09-11T23:24:52.914Z,53.57
2022-09-11T23:27:21.231Z,53.01
2022-09-11T23:29:49.338Z,53.35
2022-09-11T23:32:17.285Z,53.38
2022-09-11T23:34:45.258Z,53.41
2022-09-11T23:37:13.308Z,53.13
2022-09-11T23:39:41.372Z,53.35
2022-09-11T23:42:11.252Z,53.27
2022-09-11T23:44:39.192Z,53.06
2022-09-11T23:47:07.595Z,53.22
2022-09-11T23:49:36.629Z,53.13
2022-09-11T23:52:06.017Z,53.59
2022-09-11T23:54:33.960Z,53.40
2022-09-11T23:57:02.154Z,53.11
2022-09-11T23:59:35.707Z,53.06
